Time;durP1;ratioP1;P1;durP2;ratioP2;P2;SDS_P1;SDS_P2;PMS_P1;PMS_P2;Temp;Humidity;BMP_temperature;BMP_pressure;BME280_temperature;BME280_humidity;BME280_pressure;Samples;Min_cycle;Max_cycle;Signal;HPM_P1;HPM_P2
2023/10/27 02:43:35;;;;;;;9.50;6.20;;;;;;;9.84;100.00;96991.73;106900;1304;544779;-48
2023/10/27 02:46:01;;;;;;;10.40;6.60;;;;;;;9.79;100.00;96985.90;107345;1301;22214;-47
2023/10/27 02:48:27;;;;;;;12.70;7.40;;;;;;;9.75;100.00;96990.26;107352;1298;23066;-49
2023/10/27 02:50:52;;;;;;;13.40;7.10;;;;;;;9.76;100.00;96991.59;107355;1313;22532;-50
2023/10/27 02:53:18;;;;;;;12.20;7.60;;;;;;;9.77;100.00;96990.63;107370;1290;22661;-51
2023/10/27 02:55:44;;;;;;;10.20;6.80;;;;;;;9.77;100.00;96989.02;107347;1294;22365;-50
2023/10/27 02:58:09;;;;;;;12.00;7.20;;;;;;;9.79;100.00;96989.73;107399;1295;133038;-47
2023/10/27 03:00:34;;;;;;;14.90;7.10;;;;;;;9.80;100.00;96990.54;107515;1292;22242;-50
2023/10/27 03:03:00;;;;;;;13.90;7.60;;;;;;;9.81;100.00;96989.58;107548;1289;22430;-45
2023/10/27 03:05:26;;;;;;;11.60;8.20;;;;;;;9.83;100.00;96986.61;107576;1292;22360;-50
2023/10/27 03:07:51;;;;;;;13.80;7.20;;;;;;;9.87;100.00;96984.86;107559;1299;23019;-48
2023/10/27 03:10:16;;;;;;;11.40;7.00;;;;;;;9.90;100.00;96981.42;107818;1290;22441;-53
2023/10/27 03:12:41;;;;;;;15.60;8.30;;;;;;;9.89;100.00;96980.43;107821;1291;24367;-48
2023/10/27 03:15:08;;;;;;;12.70;9.00;;;;;;;9.87;100.00;96975.91;107806;1292;22701;-49
2023/10/27 03:17:34;;;;;;;11.50;8.40;;;;;;;9.87;100.00;96977.14;107804;1296;22339;-51
2023/10/27 03:20:00;;;;;;;12.70;8.60;;;;;;;9.87;100.00;96976.56;107795;1309;22255;-51
2023/10/27 03:22:25;;;;;;;13.60;9.00;;;;;;;9.87;100.00;96974.10;107796;1292;22244;-49
2023/10/27 03:24:50;;;;;;;13.80;9.10;;;;;;;9.88;100.00;96976.70;107633;1292;22435;-52
2023/10/27 03:27:16;;;;;;;13.60;8.70;;;;;;;9.88;100.00;96980.52;107794;1287;22239;-53
2023/10/27 03:29:41;;;;;;;12.50;9.10;;;;;;;9.89;100.00;96983.09;107797;1291;22309;-49
2023/10/27 03:32:07;;;;;;;11.30;8.50;;;;;;;9.89;100.00;96979.05;107825;1290;22224;-51
2023/10/27 03:34:32;;;;;;;13.80;9.70;;;;;;;9.89;100.00;96981.15;107816;1286;23330;-50
2023/10/27 03:36:57;;;;;;;16.10;8.90;;;;;;;9.90;100.00;96983.14;107775;1292;22345;-50
2023/10/27 03:39:22;;;;;;;11.60;8.10;;;;;;;9.89;100.00;96981.81;107810;1292;22221;-48
2023/10/27 03:41:48;;;;;;;16.90;9.50;;;;;;;9.86;100.00;96983.84;107795;1292;22964;-51
2023/10/27 03:44:13;;;;;;;12.20;8.80;;;;;;;9.83;100.00;96979.27;107796;1307;22290;-47
2023/10/27 03:46:39;;;;;;;11.80;9.10;;;;;;;9.78;100.00;96977.58;107803;1290;22252;-49
2023/10/27 03:49:04;;;;;;;11.90;8.50;;;;;;;9.73;100.00;96977.52;107815;1298;22398;-47
2023/10/27 03:51:31;;;;;;;16.10;9.80;;;;;;;9.68;100.00;96975.85;107786;1305;23022;-48
2023/10/27 03:53:56;;;;;;;11.60;8.80;;;;;;;9.65;100.00;96980.16;107777;1309;23090;-48
2023/10/27 03:56:21;;;;;;;12.50;9.30;;;;;;;9.58;100.00;96976.89;107755;1291;22236;-50
2023/10/27 03:58:47;;;;;;;11.40;9.10;;;;;;;9.53;100.00;96976.23;107726;1292;23068;-46
2023/10/27 04:01:12;;;;;;;17.40;9.00;;;;;;;9.47;100.00;96981.17;107771;1295;22098;-47
2023/10/27 04:03:37;;;;;;;15.30;10.40;;;;;;;9.42;100.00;96982.11;107732;1304;22502;-50
2023/10/27 04:06:03;;;;;;;11.70;8.90;;;;;;;9.38;100.00;96978.29;107749;1309;22257;-51
2023/10/27 04:08:29;;;;;;;14.00;9.80;;;;;;;9.36;100.00;96978.13;107750;1300;22490;-51
2023/10/27 04:10:54;;;;;;;12.50;9.40;;;;;;;9.33;100.00;96974.88;107734;1309;22995;-50
2023/10/27 04:13:19;;;;;;;15.20;10.00;;;;;;;9.29;100.00;96973.30;107758;1299;22458;-51
2023/10/27 04:15:44;;;;;;;17.20;10.00;;;;;;;9.24;100.00;96977.35;107730;1292;22213;-51
2023/10/27 04:18:10;;;;;;;14.10;10.10;;;;;;;9.20;100.00;96980.49;107733;1292;22226;-55
2023/10/27 04:20:36;;;;;;;15.00;9.60;;;;;;;9.18;100.00;96984.70;107746;1292;22242;-46
2023/10/27 04:23:01;;;;;;;17.70;10.20;;;;;;;9.19;100.00;96990.39;107745;1302;22877;-53
2023/10/27 04:25:27;;;;;;;12.80;9.90;;;;;;;9.20;100.00;96985.08;107761;1290;22311;-52
2023/10/27 04:27:53;;;;;;;14.20;9.50;;;;;;;9.21;100.00;96988.09;107749;1292;23133;-48
2023/10/27 04:30:18;;;;;;;12.80;9.80;;;;;;;9.26;100.00;96992.27;107769;1292;22424;-47
2023/10/27 04:32:45;;;;;;;12.30;9.60;;;;;;;9.31;100.00;96995.55;107764;1292;23082;-48
2023/10/27 04:35:12;;;;;;;14.70;9.40;;;;;;;9.33;100.00;96992.03;107774;1292;23261;-48
2023/10/27 04:37:38;;;;;;;12.30;9.20;;;;;;;9.33;100.00;96991.80;107800;1288;22225;-51
2023/10/27 04:40:06;;;;;;;12.20;8.90;;;;;;;9.35;100.00;96996.76;107820;1292;22335;-49
2023/10/27 04:42:31;;;;;;;11.40;9.20;;;;;;;9.38;100.00;96998.60;107807;1298;22545;-52
2023/10/27 04:44:56;;;;;;;17.20;9.90;;;;;;;9.41;100.00;96995.33;107834;1300;22912;-52
2023/10/27 04:47:21;;;;;;;15.70;9.00;;;;;;;9.43;100.00;96990.10;107798;1292;23229;-48
2023/10/27 04:49:47;;;;;;;18.60;9.50;;;;;;;9.45;100.00;96986.28;107799;1292;22514;-52
2023/10/27 04:52:12;;;;;;;12.80;9.50;;;;;;;9.46;100.00;96982.33;107810;1292;22392;-52
2023/10/27 04:54:37;;;;;;;16.10;9.20;;;;;;;9.48;100.00;96980.69;107815;1308;22436;-51
2023/10/27 04:57:03;;;;;;;14.50;9.00;;;;;;;9.50;100.00;96982.45;107827;1300;23176;-50
2023/10/27 04:59:29;;;;;;;13.30;8.70;;;;;;;9.53;100.00;96984.83;107798;1286;22265;-51
2023/10/27 05:01:54;;;;;;;14.20;8.30;;;;;;;9.54;100.00;96985.66;107831;1290;22330;-50
2023/10/27 05:04:20;;;;;;;11.10;8.40;;;;;;;9.57;100.00;96989.34;107809;1298;23246;-46
2023/10/27 05:06:45;;;;;;;15.70;9.10;;;;;;;9.60;100.00;96986.51;107806;1308;23020;-52
2023/10/27 05:09:12;;;;;;;13.90;8.80;;;;;;;9.59;100.00;96987.07;107807;1308;22968;-47
2023/10/27 05:11:39;;;;;;;14.10;9.20;;;;;;;9.59;100.00;96987.30;107826;1287;22212;-48
2023/10/27 05:14:05;;;;;;;12.40;8.60;;;;;;;9.61;100.00;96990.27;107848;1308;22266;-49
2023/10/27 05:16:30;;;;;;;12.40;8.90;;;;;;;9.60;100.00;96989.64;107812;1308;22420;-53
2023/10/27 05:18:56;;;;;;;12.00;8.60;;;;;;;9.59;100.00;96990.72;107800;1305;22262;-50
2023/10/27 05:21:26;;;;;;;14.70;8.70;;;;;;;9.60;100.00;96991.00;107810;1289;22327;-51
2023/10/27 05:23:52;;;;;;;12.40;8.60;;;;;;;9.56;100.00;96990.00;107821;1286;22466;-53
2023/10/27 05:26:17;;;;;;;12.50;8.00;;;;;;;9.56;100.00;96985.75;107817;1299;22998;-49
2023/10/27 05:28:42;;;;;;;11.40;8.10;;;;;;;9.57;100.00;96977.00;107801;1305;22218;-51
2023/10/27 05:31:07;;;;;;;12.80;8.00;;;;;;;9.55;100.00;96982.39;107828;1308;23184;-52
2023/10/27 05:33:33;;;;;;;11.00;7.50;;;;;;;9.53;100.00;96986.95;107211;1289;22269;-51
2023/10/27 05:35:58;;;;;;;11.60;8.40;;;;;;;9.48;100.00;96987.19;107817;1299;22415;-50
2023/10/27 05:38:23;;;;;;;18.60;9.40;;;;;;;9.47;100.00;96989.34;107843;1289;22247;-49
2023/10/27 05:40:48;;;;;;;16.40;8.80;;;;;;;9.46;100.00;96993.38;107805;1289;23183;-50
2023/10/27 05:43:17;;;;;;;10.90;9.00;;;;;;;9.45;100.00;96990.66;107809;1308;23896;-49
2023/10/27 05:45:42;;;;;;;16.30;9.20;;;;;;;9.40;100.00;96994.54;107812;1292;22248;-47
2023/10/27 05:48:07;;;;;;;10.40;7.60;;;;;;;9.37;100.00;96997.77;107820;1304;22263;-47
2023/10/27 05:50:32;;;;;;;12.90;8.50;;;;;;;9.35;100.00;96997.05;107825;1308;22265;-50
2023/10/27 05:52:58;;;;;;;12.80;8.50;;;;;;;9.33;100.00;97006.70;107836;1308;23590;-49
2023/10/27 05:55:25;;;;;;;16.40;9.20;;;;;;;9.30;100.00;97005.94;107845;1299;22301;-52
2023/10/27 05:57:50;;;;;;;13.90;9.50;;;;;;;9.27;100.00;97004.91;107810;1308;22250;-49
2023/10/27 06:00:16;;;;;;;16.00;8.30;;;;;;;9.25;100.00;97005.33;107801;1304;22364;-52
2023/10/27 06:02:41;;;;;;;13.10;8.50;;;;;;;9.21;100.00;97005.73;107806;1305;22398;-50
2023/10/27 06:05:07;;;;;;;11.20;8.50;;;;;;;9.20;100.00;97002.56;107808;1308;23004;-51
2023/10/27 06:07:32;;;;;;;18.50;9.50;;;;;;;9.17;100.00;97001.04;107818;1298;22408;-49
2023/10/27 06:09:57;;;;;;;16.80;9.70;;;;;;;9.15;100.00;96998.80;107855;1302;22250;-50
2023/10/27 06:12:22;;;;;;;14.00;8.80;;;;;;;9.13;100.00;96994.95;107867;1288;22726;-48
2023/10/27 06:14:48;;;;;;;11.80;9.40;;;;;;;9.10;100.00;96994.47;107854;1286;23005;-52
2023/10/27 06:17:13;;;;;;;15.00;9.40;;;;;;;9.10;100.00;96990.86;107856;1289;22295;-53
2023/10/27 06:19:38;;;;;;;15.00;9.30;;;;;;;9.09;100.00;96991.42;107882;1288;22411;-50
2023/10/27 06:22:05;;;;;;;16.60;10.10;;;;;;;9.10;100.00;96988.38;107916;1285;22240;-49
2023/10/27 06:24:30;;;;;;;12.90;9.10;;;;;;;9.12;100.00;96982.11;107927;1286;22283;-50
2023/10/27 06:26:58;;;;;;;14.70;9.40;;;;;;;9.14;100.00;96986.85;107952;1299;22411;-48
2023/10/27 06:29:23;;;;;;;15.50;10.30;;;;;;;9.14;100.00;96983.35;107928;1305;22311;-48
2023/10/27 06:31:49;;;;;;;14.30;9.40;;;;;;;9.16;100.00;96978.38;107918;1307;22221;-50
2023/10/27 06:34:14;;;;;;;16.10;9.90;;;;;;;9.18;100.00;96977.00;107558;1295;22263;-52
2023/10/27 06:36:39;;;;;;;14.10;9.50;;;;;;;9.20;100.00;96980.35;108028;1286;22267;-53
2023/10/27 06:39:05;;;;;;;15.60;9.70;;;;;;;9.22;100.00;96980.72;108008;1283;22459;-48
2023/10/27 06:41:30;;;;;;;14.00;10.00;;;;;;;9.27;100.00;96985.53;107900;1307;22263;-50
2023/10/27 06:43:55;;;;;;;16.60;9.80;;;;;;;9.35;100.00;96989.75;107938;1287;22393;-48
2023/10/27 06:46:20;;;;;;;17.70;10.90;;;;;;;9.40;100.00;96992.25;107932;1307;22931;-49
2023/10/27 06:48:46;;;;;;;12.30;9.60;;;;;;;9.44;100.00;96997.19;107945;1307;22456;-50
2023/10/27 06:51:11;;;;;;;16.90;10.40;;;;;;;9.45;100.00;96994.45;107925;1307;22342;-49
2023/10/27 06:53:36;;;;;;;13.70;9.90;;;;;;;9.44;100.00;96994.05;107944;1288;22257;-48
2023/10/27 06:56:02;;;;;;;14.20;9.50;;;;;;;9.44;100.00;96989.09;107933;1288;22249;-49
2023/10/27 06:58:27;;;;;;;13.50;9.30;;;;;;;9.45;100.00;96992.54;107914;1307;24654;-52
2023/10/27 07:00:52;;;;;;;14.50;10.00;;;;;;;9.47;100.00;96994.63;107926;1307;24355;-49
2023/10/27 07:03:18;;;;;;;12.50;9.20;;;;;;;9.51;100.00;96996.20;107961;1289;22948;-47
2023/10/27 07:05:52;;;;;;;15.50;10.80;;;;;;;9.55;100.00;96996.92;107905;1307;22323;-52
2023/10/27 07:08:17;;;;;;;19.10;10.50;;;;;;;9.56;100.00;96994.00;107522;1307;22338;-49
2023/10/27 07:10:45;;;;;;;18.30;11.10;;;;;;;9.57;100.00;96994.13;107941;1286;22475;-50
2023/10/27 07:13:11;;;;;;;22.10;11.90;;;;;;;9.59;100.00;96994.62;107933;1286;22952;-51
2023/10/27 07:15:36;;;;;;;16.30;11.50;;;;;;;9.65;100.00;96988.73;107914;1298;23078;-47
2023/10/27 07:18:01;;;;;;;18.90;11.50;;;;;;;9.70;100.00;96993.70;107952;1289;22382;-48
2023/10/27 07:20:27;;;;;;;16.80;12.00;;;;;;;9.76;100.00;96991.58;107918;1299;22273;-49
2023/10/27 07:22:52;;;;;;;17.40;11.70;;;;;;;9.79;100.00;96991.98;107935;1307;22318;-49
2023/10/27 07:25:18;;;;;;;24.90;11.90;;;;;;;9.84;100.00;96993.45;107896;1289;23154;-52
2023/10/27 07:27:43;;;;;;;18.70;11.80;;;;;;;9.89;100.00;96996.38;107902;1301;22967;-49
2023/10/27 07:30:09;;;;;;;16.40;11.60;;;;;;;9.92;100.00;96999.24;107963;1288;22420;-47
2023/10/27 07:32:34;;;;;;;20.20;11.50;;;;;;;9.94;100.00;96997.62;107965;1294;22333;-48
2023/10/27 07:35:03;;;;;;;21.70;11.90;;;;;;;9.98;100.00;96996.93;107943;1289;23090;-51
2023/10/27 07:37:28;;;;;;;18.60;11.50;;;;;;;10.02;100.00;97000.98;107910;1295;22327;-52
2023/10/27 07:39:55;;;;;;;14.30;10.50;;;;;;;10.07;100.00;97002.27;108016;1289;22474;-51
2023/10/27 07:42:20;;;;;;;14.10;10.10;;;;;;;10.10;100.00;97001.80;108042;1283;22936;-50
2023/10/27 07:44:45;;;;;;;15.60;10.90;;;;;;;10.14;100.00;97000.61;108038;1307;22216;-50
2023/10/27 07:47:11;;;;;;;14.20;10.00;;;;;;;10.18;100.00;96996.33;108022;1286;22938;-52
2023/10/27 07:49:37;;;;;;;14.40;10.00;;;;;;;10.23;100.00;96991.88;107994;1283;22260;-52
2023/10/27 07:52:03;;;;;;;15.60;9.70;;;;;;;10.29;100.00;96989.31;107913;1291;22258;-49
2023/10/27 07:54:29;;;;;;;14.80;9.90;;;;;;;10.32;100.00;96988.69;107955;1291;22434;-47
2023/10/27 07:56:55;;;;;;;17.20;10.40;;;;;;;10.32;100.00;96986.70;107960;1291;23361;-55
2023/10/27 07:59:20;;;;;;;12.60;9.40;;;;;;;10.35;100.00;96981.00;107963;1289;23214;-49
2023/10/27 08:01:46;;;;;;;18.70;10.00;;;;;;;10.39;100.00;96981.39;107922;1307;22933;-54
2023/10/27 08:04:11;;;;;;;16.10;9.90;;;;;;;10.41;100.00;96977.41;107945;1292;22227;-49
2023/10/27 08:06:36;;;;;;;15.60;11.60;;;;;;;10.44;100.00;96979.04;107954;1307;22264;-54
2023/10/27 08:09:02;;;;;;;18.40;11.70;;;;;;;10.57;100.00;96979.20;107908;1286;22192;-52
2023/10/27 08:11:27;;;;;;;23.10;12.40;;;;;;;10.89;100.00;96978.53;107959;1307;22467;-56
2023/10/27 08:13:53;;;;;;;17.70;11.90;;;;;;;11.09;100.00;96979.83;107948;1307;24438;-55
2023/10/27 08:16:18;;;;;;;28.10;12.60;;;;;;;11.24;100.00;96977.41;107952;1307;22367;-56
2023/10/27 08:18:45;;;;;;;18.70;11.80;;;;;;;11.43;100.00;96973.98;107875;1307;22306;-54
2023/10/27 08:21:10;;;;;;;15.80;10.40;;;;;;;11.52;100.00;96973.40;107961;1292;22325;-55
2023/10/27 08:23:35;;;;;;;24.80;11.40;;;;;;;11.57;100.00;96975.77;107955;1292;22429;-53
2023/10/27 08:26:01;;;;;;;15.00;9.80;;;;;;;11.74;100.00;96974.02;107922;1283;22328;-57
2023/10/27 08:28:27;;;;;;;51.50;26.30;;;;;;;11.84;100.00;96973.55;107929;1307;22231;-46
2023/10/27 08:30:53;;;;;;;36.70;18.90;;;;;;;11.85;100.00;96973.94;107954;1289;22223;-46
2023/10/27 08:33:18;;;;;;;23.90;15.10;;;;;;;11.80;100.00;96975.36;107960;1284;23052;-48
2023/10/27 08:35:43;;;;;;;19.50;10.90;;;;;;;11.76;100.00;96974.84;107923;1302;22268;-45
2023/10/27 08:38:09;;;;;;;15.50;9.90;;;;;;;11.73;100.00;96971.11;107949;1286;23072;-43
2023/10/27 08:40:36;;;;;;;14.70;9.80;;;;;;;11.72;100.00;96967.71;107985;1283;22307;-46
2023/10/27 08:43:03;;;;;;;12.90;9.80;;;;;;;11.72;100.00;96961.72;108035;1292;22269;-46
2023/10/27 08:45:28;;;;;;;15.20;9.60;;;;;;;11.72;100.00;96960.64;107947;1307;22339;-44
2023/10/27 08:47:54;;;;;;;17.00;8.80;;;;;;;11.73;100.00;96961.77;107941;1292;22409;-51
2023/10/27 08:50:19;;;;;;;16.70;9.30;;;;;;;11.76;100.00;96961.50;107704;1304;25441;-44
2023/10/27 08:52:46;;;;;;;14.90;9.20;;;;;;;11.86;100.00;96958.60;107932;1289;22245;-43
2023/10/27 08:55:12;;;;;;;13.80;8.90;;;;;;;11.98;100.00;96963.45;108029;1283;22367;-47
2023/10/27 08:57:38;;;;;;;14.00;9.20;;;;;;;11.99;99.49;96964.21;108042;1287;23225;-48
2023/10/27 09:00:08;;;;;;;15.30;8.80;;;;;;;11.99;99.34;96962.64;108049;1287;22342;-44
2023/10/27 09:02:39;;;;;;;13.50;9.10;;;;;;;12.02;99.47;96956.53;108031;1289;22271;-43
2023/10/27 09:05:05;;;;;;;12.90;8.70;;;;;;;12.03;98.39;96954.88;108051;1289;22928;-46
2023/10/27 09:07:34;;;;;;;12.30;9.50;;;;;;;12.01;97.90;96951.70;108056;1301;22163;-44
2023/10/27 09:10:00;;;;;;;12.80;9.10;;;;;;;11.99;97.98;96949.62;108025;1288;22313;-47
2023/10/27 09:12:28;;;;;;;13.50;10.10;;;;;;;12.02;98.69;96950.25;107979;1307;22709;-43
2023/10/27 09:15:04;;;;;;;18.50;9.80;;;;;;;12.06;98.76;96952.40;107936;1292;22293;-45
2023/10/27 09:17:29;;;;;;;15.20;10.30;;;;;;;12.11;98.54;96952.70;107959;1292;22222;-44
2023/10/27 09:20:09;;;;;;;19.60;11.50;;;;;;;12.14;98.74;96955.69;107935;1307;22536;-43
2023/10/27 09:22:36;;;;;;;13.20;9.70;;;;;;;12.18;98.86;96956.31;107888;1285;22463;-46
2023/10/27 09:25:18;;;;;;;20.50;9.70;;;;;;;12.23;98.74;96952.31;108023;1292;22234;-47
2023/10/27 09:27:45;;;;;;;18.60;10.30;;;;;;;12.24;98.00;96955.21;108025;1291;22422;-44
2023/10/27 09:30:12;;;;;;;17.70;11.00;;;;;;;12.24;97.43;96957.82;108030;1306;22441;-47
2023/10/27 09:32:40;;;;;;;;;;;;;;;12.25;97.40;96959.89;108025;1307;22521;-48
2023/10/27 09:35:17;;;;;;;19.60;10.60;;;;;;;12.27;97.79;96957.41;106979;1285;22741;-44
2023/10/27 09:37:43;;;;;;;17.70;11.20;;;;;;;12.28;97.41;96957.65;108038;1288;22452;-43
2023/10/27 09:40:11;;;;;;;19.90;10.20;;;;;;;12.28;97.55;96953.83;107811;1292;22575;-43
2023/10/27 09:42:37;;;;;;;;;;;;;;;12.28;97.16;96955.38;107229;1299;22545;-45
2023/10/27 09:45:07;;;;;;;14.80;10.20;;;;;;;12.26;97.09;96955.21;107049;1301;22578;-46
2023/10/27 09:47:38;;;;;;;13.80;10.40;;;;;;;12.28;97.47;96951.63;107653;1289;22495;-49
2023/10/27 09:50:06;;;;;;;13.30;10.90;;;;;;;12.24;96.43;96949.11;107508;1307;22342;-42
2023/10/27 09:52:33;;;;;;;14.80;10.50;;;;;;;12.21;96.48;96944.25;107512;1288;23253;-45
2023/10/27 09:54:58;;;;;;;15.60;11.80;;;;;;;12.20;96.25;96943.19;107695;1299;22597;-49
2023/10/27 09:57:26;;;;;;;20.80;13.50;;;;;;;12.20;96.82;96940.02;107179;1307;22647;-46
2023/10/27 09:59:54;;;;;;;18.40;13.50;;;;;;;12.22;96.87;96937.64;107798;1294;22541;-49
2023/10/27 10:02:22;;;;;;;23.80;15.80;;;;;;;12.26;97.37;96929.05;107222;1305;22330;-44
2023/10/27 10:04:50;;;;;;;27.00;15.70;;;;;;;12.27;96.45;96926.33;107778;1302;22286;-44
2023/10/27 10:07:32;;;;;;;23.70;14.50;;;;;;;12.26;96.18;96927.56;107867;1307;23183;-45
2023/10/27 10:10:15;;;;;;;29.70;15.50;;;;;;;12.29;96.62;96928.23;107937;1285;23020;-43
2023/10/27 10:12:59;;;;;;;23.40;15.00;;;;;;;12.30;96.32;96927.91;107755;1307;23025;-46
2023/10/27 10:15:27;;;;;;;20.00;14.60;;;;;;;12.30;96.11;96921.23;107622;1288;22587;-45
2023/10/27 10:17:52;;;;;;;21.20;14.70;;;;;;;12.32;95.63;96923.16;107793;1302;22441;-49
2023/10/27 10:20:52;;;;;;;26.00;17.00;;;;;;;12.33;94.94;96924.38;107900;1289;22269;-47
2023/10/27 10:23:18;;;;;;;22.30;15.20;;;;;;;12.39;96.14;96930.05;107854;1303;22576;-47
2023/10/27 10:25:57;;;;;;;23.20;15.40;;;;;;;12.43;95.57;96931.92;107751;1286;22248;-47
2023/10/27 10:28:29;;;;;;;26.90;15.40;;;;;;;12.48;95.42;96933.59;107654;1301;22232;-48
2023/10/27 10:31:07;;;;;;;23.70;15.30;;;;;;;12.50;95.07;96928.73;107838;1285;22394;-52
2023/10/27 10:33:36;;;;;;;30.90;15.50;;;;;;;12.53;94.58;96922.84;107629;1283;22609;-54
2023/10/27 10:36:10;;;;;;;21.70;14.10;;;;;;;12.55;93.02;96917.88;107767;1306;22267;-52
2023/10/27 10:38:40;;;;;;;28.40;14.80;;;;;;;12.53;92.48;96916.15;107561;1300;23086;-57
2023/10/27 10:41:05;;;;;;;25.60;15.00;;;;;;;12.57;93.16;96911.75;107774;1302;23104;-49
2023/10/27 10:43:34;;;;;;;23.60;14.70;;;;;;;12.61;93.07;96905.09;107395;1306;22471;-53
2023/10/27 10:46:05;;;;;;;29.10;15.40;;;;;;;12.66;93.85;96901.85;107927;1283;22507;-49
2023/10/27 10:48:32;;;;;;;27.60;15.80;;;;;;;12.67;92.49;96892.95;107966;1289;23720;-54
2023/10/27 10:51:04;;;;;;;26.20;15.90;;;;;;;12.67;92.55;96891.15;107558;1299;22563;-48
2023/10/27 10:53:30;;;;;;;28.40;16.00;;;;;;;12.68;91.95;96889.33;107917;1285;22979;-51
2023/10/27 10:56:00;;;;;;;33.50;16.30;;;;;;;12.67;92.16;96888.34;107949;1298;22522;-52
2023/10/27 10:58:27;;;;;;;32.00;17.40;;;;;;;12.67;91.97;96882.54;107405;1289;22571;-45
2023/10/27 11:00:55;;;;;;;27.50;16.50;;;;;;;12.69;92.26;96881.16;107714;1299;23180;-56
2023/10/27 11:03:23;;;;;;;24.70;16.10;;;;;;;12.68;92.19;96881.52;107809;1289;22272;-57
2023/10/27 11:05:54;;;;;;;28.40;17.50;;;;;;;12.68;92.58;96883.02;107488;1284;22563;-48
2023/10/27 11:08:28;;;;;;;21.90;16.80;;;;;;;12.70;93.53;96885.09;107971;1289;22304;-49
2023/10/27 11:11:02;;;;;;;26.30;16.40;;;;;;;12.67;93.20;96885.15;108044;1307;22270;-46
2023/10/27 11:13:28;;;;;;;26.80;16.10;;;;;;;12.68;93.11;96887.02;108007;1307;22403;-49
2023/10/27 11:15:53;;;;;;;26.60;15.90;;;;;;;12.68;92.78;96886.31;107534;1307;22501;-52
2023/10/27 11:18:19;;;;;;;26.20;13.70;;;;;;;12.71;93.41;96880.05;107460;1288;22259;-53
2023/10/27 11:20:45;;;;;;;17.80;11.90;;;;;;;12.70;93.29;96881.40;107505;1292;22299;-54
2023/10/27 11:23:15;;;;;;;20.30;12.90;;;;;;;12.68;92.51;96876.45;107502;1288;23119;-49
2023/10/27 11:25:41;;;;;;;135.90;50.10;;;;;;;12.68;93.10;96872.46;107454;1305;23217;-48
2023/10/27 11:28:28;;;;;;;248.60;94.50;;;;;;;12.69;93.01;96871.12;107528;1305;23076;-54
2023/10/27 11:31:15;;;;;;;42.60;19.50;;;;;;;12.67;93.42;96865.11;107454;1292;22286;-56
2023/10/27 11:34:03;;;;;;;20.50;13.00;;;;;;;12.71;94.24;96861.20;107563;1287;22444;-53
2023/10/27 11:36:38;;;;;;;26.90;12.80;;;;;;;12.77;93.93;96857.87;107465;1292;22614;-50
2023/10/27 11:39:17;;;;;;;25.60;14.30;;;;;;;12.82;93.55;96857.63;107491;1310;22359;-49
2023/10/27 11:42:03;;;;;;;26.60;12.00;;;;;;;12.87;92.59;96856.65;107538;1295;23168;-45
2023/10/27 11:44:39;;;;;;;26.20;11.60;;;;;;;12.94;92.76;96858.36;107461;1304;22274;-56
2023/10/27 11:47:05;;;;;;;20.00;11.20;;;;;;;13.03;92.74;96858.27;107742;1307;22403;-48
2023/10/27 11:49:32;;;;;;;16.10;9.50;;;;;;;13.09;92.32;96858.02;108015;1285;22354;-54
2023/10/27 11:51:58;;;;;;;14.10;10.20;;;;;;;13.12;91.39;96858.48;108006;1289;22226;-52
2023/10/27 11:54:25;;;;;;;14.00;10.30;;;;;;;13.15;91.47;96852.36;108033;1290;23158;-54
2023/10/27 11:56:50;;;;;;;18.70;10.50;;;;;;;13.16;90.53;96848.70;108006;1298;22230;-50
2023/10/27 11:59:19;;;;;;;16.80;10.40;;;;;;;13.18;90.98;96844.81;108011;1289;23042;-52
2023/10/27 12:01:44;;;;;;;17.10;10.50;;;;;;;13.17;89.45;96841.58;108047;1289;22247;-55
2023/10/27 12:04:13;;;;;;;13.60;10.80;;;;;;;13.17;90.05;96838.38;107977;1299;22506;-49
2023/10/27 12:06:39;;;;;;;15.10;11.00;;;;;;;13.17;89.77;96837.16;108018;1301;22412;-56
2023/10/27 12:09:05;;;;;;;13.10;10.40;;;;;;;13.16;88.64;96833.94;108026;1289;22233;-46
2023/10/27 12:11:30;;;;;;;15.20;11.00;;;;;;;13.16;88.72;96834.64;108020;1287;22229;-47
2023/10/27 12:13:56;;;;;;;12.30;10.00;;;;;;;13.15;88.94;96834.71;108001;1295;23191;-55
2023/10/27 12:16:22;;;;;;;13.20;8.70;;;;;;;13.15;88.98;96831.21;108002;1285;22236;-45
2023/10/27 12:18:50;;;;;;;22.20;9.00;;;;;;;13.11;88.69;96825.86;107830;1307;22237;-55
2023/10/27 12:21:15;;;;;;;10.70;8.50;;;;;;;13.09;88.59;96824.67;108056;1289;22907;-45
2023/10/27 12:23:40;;;;;;;12.60;7.90;;;;;;;13.07;88.82;96823.11;107953;1289;22326;-51
2023/10/27 12:26:07;;;;;;;10.50;7.80;;;;;;;13.01;88.68;96821.07;108002;1287;22910;-52
2023/10/27 12:28:33;;;;;;;18.90;9.50;;;;;;;12.98;89.28;96822.90;108027;1289;22609;-47
2023/10/27 12:30:59;;;;;;;16.90;9.00;;;;;;;12.94;89.20;96820.55;108006;1289;22973;-56
2023/10/27 12:33:25;;;;;;;16.20;9.60;;;;;;;12.85;88.98;96820.05;108009;1307;22250;-50
2023/10/27 12:35:50;;;;;;;18.70;10.60;;;;;;;12.80;89.19;96818.98;107960;1302;23036;-52
2023/10/27 12:38:17;;;;;;;17.50;9.30;;;;;;;12.78;90.38;96813.58;108005;1289;22415;-54
2023/10/27 12:40:44;;;;;;;12.80;8.40;;;;;;;12.75;90.22;96813.55;107987;1307;22436;-51
2023/10/27 12:43:11;;;;;;;13.40;8.20;;;;;;;12.70;90.32;96815.28;107997;1285;22400;-47
2023/10/27 12:45:37;;;;;;;13.50;8.50;;;;;;;12.67;90.87;96811.71;108036;1289;22345;-54
2023/10/27 12:48:03;;;;;;;23.30;9.70;;;;;;;12.66;91.24;96812.38;107966;1307;22991;-50
2023/10/27 12:50:30;;;;;;;19.70;9.70;;;;;;;12.63;91.45;96809.85;108039;1305;22409;-54
2023/10/27 12:52:56;;;;;;;15.70;9.20;;;;;;;12.59;91.37;96808.19;108004;1285;22401;-51
2023/10/27 12:55:22;;;;;;;20.50;9.40;;;;;;;12.55;91.31;96806.81;107982;1285;23026;-49
2023/10/27 12:57:47;;;;;;;17.00;9.60;;;;;;;12.50;91.76;96803.56;108042;1306;22390;-54
2023/10/27 13:00:20;;;;;;;21.20;10.20;;;;;;;12.50;91.98;96806.14;107946;1305;22274;-52
2023/10/27 13:02:46;;;;;;;14.60;9.40;;;;;;;12.48;92.19;96808.44;107975;1288;22218;-56
2023/10/27 13:05:17;;;;;;;20.10;10.40;;;;;;;12.47;92.28;96810.41;108004;1303;22485;-48
2023/10/27 13:07:42;;;;;;;23.80;10.50;;;;;;;12.45;92.07;96808.91;107938;1307;22222;-49
2023/10/27 13:10:08;;;;;;;23.00;10.40;;;;;;;12.40;91.45;96808.40;108004;1302;22295;-54
2023/10/27 13:12:34;;;;;;;21.20;10.60;;;;;;;12.37;91.82;96809.69;107945;1289;22267;-54
2023/10/27 13:14:59;;;;;;;22.20;10.60;;;;;;;12.35;91.91;96815.26;107938;1302;22218;-48
2023/10/27 13:17:24;;;;;;;17.00;10.30;;;;;;;12.32;92.12;96816.42;108009;1285;22297;-55
2023/10/27 13:19:50;;;;;;;20.40;10.30;;;;;;;12.27;92.06;96818.05;107922;1301;22384;-48
2023/10/27 13:22:15;;;;;;;20.00;10.40;;;;;;;12.23;92.36;96815.88;107938;1307;22268;-45
2023/10/27 13:24:41;;;;;;;37.60;11.00;;;;;;;12.08;91.63;96816.52;107979;1286;22410;-56
2023/10/27 13:27:08;;;;;;;23.10;10.80;;;;;;;11.97;91.77;96812.50;108000;1288;22406;-58
2023/10/27 13:29:34;;;;;;;27.90;10.40;;;;;;;11.91;92.36;96814.31;107965;1284;22426;-48
2023/10/27 13:31:59;;;;;;;24.10;11.10;;;;;;;11.87;92.64;96814.16;107929;1300;22407;-53
2023/10/27 13:34:25;;;;;;;21.20;10.30;;;;;;;11.88;93.11;96815.70;107818;1289;22424;-50
2023/10/27 13:36:50;;;;;;;18.50;8.20;;;;;;;11.85;93.16;96812.75;107922;1289;23113;-51
2023/10/27 13:39:19;;;;;;;16.70;8.70;;;;;;;11.78;93.62;96812.08;107885;1289;23314;-48
2023/10/27 13:41:44;;;;;;;14.00;9.00;;;;;;;11.76;94.04;96811.28;107708;1304;22257;-58
2023/10/27 13:44:09;;;;;;;17.40;8.80;;;;;;;11.61;94.06;96806.77;107927;1307;23101;-49
2023/10/27 13:46:35;;;;;;;14.50;8.40;;;;;;;11.59;94.21;96805.92;107903;1307;22242;-49
2023/10/27 13:49:06;;;;;;;18.20;8.90;;;;;;;11.58;94.26;96805.51;107912;1286;22416;-53
2023/10/27 13:51:32;;;;;;;14.40;9.40;;;;;;;11.53;94.19;96806.30;107922;1307;22269;-48
2023/10/27 13:53:57;;;;;;;14.70;8.20;;;;;;;11.49;94.54;96802.86;107708;1298;22391;-49